sensor_id;sensor_type;location;lat;lon;timestamp;pressure;altitude;pressure_sealevel;temperature;humidity
37170;BME280;23062;13.952;100.608;2023-10-13T00:01:04;1013.48;;;30.18;86.10
37170;BME280;23062;13.952;100.608;2023-10-13T00:05:46;1013.45;;;30.23;85.97
37170;BME280;23062;13.952;100.608;2023-10-13T00:10:24;1013.58;;;30.32;85.74
37170;BME280;23062;13.952;100.608;2023-10-13T00:15:01;1013.63;;;30.32;86.01
37170;BME280;23062;13.952;100.608;2023-10-13T00:19:39;1013.64;;;30.36;86.04
37170;BME280;23062;13.952;100.608;2023-10-13T00:24:27;1013.63;;;30.42;85.59
37170;BME280;23062;13.952;100.608;2023-10-13T00:29:12;1013.64;;;30.42;85.59
37170;BME280;23062;13.952;100.608;2023-10-13T00:33:56;1013.58;;;30.39;85.77
37170;BME280;23062;13.952;100.608;2023-10-13T00:38:41;1013.66;;;30.40;85.97
37170;BME280;23062;13.952;100.608;2023-10-13T00:43:25;1013.71;;;30.42;87.02
37170;BME280;23062;13.952;100.608;2023-10-13T00:48:03;1013.70;;;30.55;85.92
37170;BME280;23062;13.952;100.608;2023-10-13T00:52:40;1013.76;;;30.63;85.98
37170;BME280;23062;13.952;100.608;2023-10-13T00:57:21;1013.78;;;30.61;86.09
37170;BME280;23062;13.952;100.608;2023-10-13T01:02:14;1013.83;;;30.73;85.38
37170;BME280;23062;13.952;100.608;2023-10-13T01:07:17;1013.82;;;30.73;84.71
37170;BME280;23062;13.952;100.608;2023-10-13T01:12:01;1013.84;;;30.75;85.09
37170;BME280;23062;13.952;100.608;2023-10-13T01:16:46;1013.84;;;30.82;84.20
37170;BME280;23062;13.952;100.608;2023-10-13T01:21:30;1013.85;;;30.82;84.24
37170;BME280;23062;13.952;100.608;2023-10-13T01:26:13;1013.88;;;30.87;84.32
37170;BME280;23062;13.952;100.608;2023-10-13T01:30:58;1013.93;;;30.95;83.83
37170;BME280;23062;13.952;100.608;2023-10-13T01:35:43;1014.05;;;30.96;83.45
37170;BME280;23062;13.952;100.608;2023-10-13T01:40:28;1014.06;;;30.99;83.09
37170;BME280;23062;13.952;100.608;2023-10-13T01:45:09;1014.10;;;31.00;82.77
37170;BME280;23062;13.952;100.608;2023-10-13T01:49:46;1013.98;;;31.05;82.44
37170;BME280;23062;13.952;100.608;2023-10-13T01:54:32;1014.07;;;31.11;82.00
37170;BME280;23062;13.952;100.608;2023-10-13T01:59:16;1014.13;;;31.17;81.42
37170;BME280;23062;13.952;100.608;2023-10-13T02:04:01;1014.20;;;31.25;81.08
37170;BME280;23062;13.952;100.608;2023-10-13T02:08:49;1014.24;;;31.24;80.96
37170;BME280;23062;13.952;100.608;2023-10-13T02:13:34;1014.35;;;31.20;81.17
37170;BME280;23062;13.952;100.608;2023-10-13T02:18:18;1014.31;;;31.23;79.88
37170;BME280;23062;13.952;100.608;2023-10-13T02:23:15;1014.25;;;31.22;79.08
37170;BME280;23062;13.952;100.608;2023-10-13T02:27:58;1014.28;;;31.29;78.23
37170;BME280;23062;13.952;100.608;2023-10-13T02:32:41;1014.30;;;31.30;77.60
37170;BME280;23062;13.952;100.608;2023-10-13T02:37:26;1014.28;;;31.31;77.42
37170;BME280;23062;13.952;100.608;2023-10-13T02:42:10;1014.21;;;31.25;77.84
37170;BME280;23062;13.952;100.608;2023-10-13T02:46:59;1014.23;;;31.28;78.27
37170;BME280;23062;13.952;100.608;2023-10-13T02:51:39;1014.21;;;31.32;77.99
37170;BME280;23062;13.952;100.608;2023-10-13T02:56:20;1014.19;;;31.36;78.32
37170;BME280;23062;13.952;100.608;2023-10-13T03:01:08;1014.10;;;31.37;77.95
37170;BME280;23062;13.952;100.608;2023-10-13T03:05:58;1014.03;;;31.47;76.95
37170;BME280;23062;13.952;100.608;2023-10-13T03:10:40;1014.00;;;31.45;75.93
37170;BME280;23062;13.952;100.608;2023-10-13T03:15:20;1013.89;;;31.42;75.39
37170;BME280;23062;13.952;100.608;2023-10-13T03:20:06;1013.81;;;31.45;75.54
37170;BME280;23062;13.952;100.608;2023-10-13T03:24:50;1013.85;;;31.44;75.39
37170;BME280;23062;13.952;100.608;2023-10-13T03:29:28;1013.68;;;31.39;74.86
37170;BME280;23062;13.952;100.608;2023-10-13T03:34:14;1013.56;;;31.40;74.76
37170;BME280;23062;13.952;100.608;2023-10-13T03:38:52;1013.52;;;31.48;73.40
37170;BME280;23062;13.952;100.608;2023-10-13T03:43:35;1013.46;;;31.46;73.40
37170;BME280;23062;13.952;100.608;2023-10-13T03:48:30;1013.38;;;31.48;73.43
37170;BME280;23062;13.952;100.608;2023-10-13T03:53:14;1013.25;;;31.51;72.38
37170;BME280;23062;13.952;100.608;2023-10-13T03:57:57;1013.26;;;31.53;72.37
37170;BME280;23062;13.952;100.608;2023-10-13T04:02:42;1013.17;;;31.52;72.71
37170;BME280;23062;13.952;100.608;2023-10-13T04:07:25;1013.07;;;31.63;69.94
37170;BME280;23062;13.952;100.608;2023-10-13T04:12:09;1013.03;;;31.65;70.00
37170;BME280;23062;13.952;100.608;2023-10-13T04:16:59;1012.93;;;31.76;68.08
37170;BME280;23062;13.952;100.608;2023-10-13T04:21:45;1012.78;;;31.75;68.28
37170;BME280;23062;13.952;100.608;2023-10-13T04:26:38;1012.75;;;31.73;68.05
37170;BME280;23062;13.952;100.608;2023-10-13T04:31:20;1012.63;;;31.71;67.89
37170;BME280;23062;13.952;100.608;2023-10-13T04:36:22;1012.64;;;31.72;67.64
37170;BME280;23062;13.952;100.608;2023-10-13T04:41:09;1012.53;;;31.72;67.00
37170;BME280;23062;13.952;100.608;2023-10-13T04:45:52;1012.47;;;31.74;67.16
37170;BME280;23062;13.952;100.608;2023-10-13T04:50:42;1012.48;;;31.78;66.53
37170;BME280;23062;13.952;100.608;2023-10-13T04:55:24;1012.40;;;31.78;66.88
37170;BME280;23062;13.952;100.608;2023-10-13T05:00:27;1012.28;;;31.78;66.59
37170;BME280;23062;13.952;100.608;2023-10-13T05:05:29;1012.17;;;31.80;66.90
37170;BME280;23062;13.952;100.608;2023-10-13T05:10:31;1012.08;;;31.85;66.56
37170;BME280;23062;13.952;100.608;2023-10-13T05:15:34;1011.90;;;31.97;65.45
37170;BME280;23062;13.952;100.608;2023-10-13T05:20:38;1011.86;;;32.03;64.74
37170;BME280;23062;13.952;100.608;2023-10-13T05:25:41;1011.77;;;32.03;65.20
37170;BME280;23062;13.952;100.608;2023-10-13T05:30:43;1011.68;;;32.10;64.79
37170;BME280;23062;13.952;100.608;2023-10-13T05:35:47;1011.61;;;32.02;65.21
37170;BME280;23062;13.952;100.608;2023-10-13T05:41:04;1011.47;;;32.06;65.76
37170;BME280;23062;13.952;100.608;2023-10-13T05:46:03;1011.39;;;32.04;65.72
37170;BME280;23062;13.952;100.608;2023-10-13T05:51:05;1011.32;;;32.11;65.91
37170;BME280;23062;13.952;100.608;2023-10-13T05:56:08;1011.24;;;32.16;65.17
37170;BME280;23062;13.952;100.608;2023-10-13T06:01:12;1011.16;;;32.21;64.78
37170;BME280;23062;13.952;100.608;2023-10-13T06:06:06;1010.99;;;32.20;65.22
37170;BME280;23062;13.952;100.608;2023-10-13T06:11:09;1010.87;;;32.18;65.72
37170;BME280;23062;13.952;100.608;2023-10-13T06:16:14;1010.85;;;32.32;65.47
37170;BME280;23062;13.952;100.608;2023-10-13T06:21:18;1010.80;;;32.28;65.76
37170;BME280;23062;13.952;100.608;2023-10-13T06:26:21;1010.71;;;32.28;66.04
37170;BME280;23062;13.952;100.608;2023-10-13T06:31:16;1010.65;;;32.29;65.51
37170;BME280;23062;13.952;100.608;2023-10-13T06:36:11;1010.50;;;32.19;65.85
37170;BME280;23062;13.952;100.608;2023-10-13T06:40:55;1010.51;;;32.19;65.83
37170;BME280;23062;13.952;100.608;2023-10-13T06:45:32;1010.45;;;32.27;65.89
37170;BME280;23062;13.952;100.608;2023-10-13T06:50:14;1010.35;;;32.32;64.94
37170;BME280;23062;13.952;100.608;2023-10-13T06:54:54;1010.26;;;32.28;65.16
37170;BME280;23062;13.952;100.608;2023-10-13T06:59:33;1010.09;;;32.28;64.84
37170;BME280;23062;13.952;100.608;2023-10-13T07:04:17;1010.02;;;32.31;65.13
37170;BME280;23062;13.952;100.608;2023-10-13T07:09:03;1010.02;;;32.39;64.73
37170;BME280;23062;13.952;100.608;2023-10-13T07:13:46;1009.81;;;32.45;62.66
37170;BME280;23062;13.952;100.608;2023-10-13T07:18:31;1009.76;;;32.42;63.74
37170;BME280;23062;13.952;100.608;2023-10-13T07:23:17;1009.60;;;32.45;63.47
37170;BME280;23062;13.952;100.608;2023-10-13T07:28:04;1009.45;;;32.36;64.12
37170;BME280;23062;13.952;100.608;2023-10-13T07:32:50;1009.46;;;32.41;64.20
37170;BME280;23062;13.952;100.608;2023-10-13T07:37:28;1009.32;;;32.42;63.82
37170;BME280;23062;13.952;100.608;2023-10-13T07:42:14;1009.22;;;32.41;63.23
37170;BME280;23062;13.952;100.608;2023-10-13T07:47:05;1009.13;;;32.38;63.87
37170;BME280;23062;13.952;100.608;2023-10-13T07:51:43;1009.10;;;32.37;63.70
37170;BME280;23062;13.952;100.608;2023-10-13T07:56:31;1009.01;;;32.45;62.47
37170;BME280;23062;13.952;100.608;2023-10-13T08:01:12;1008.84;;;32.41;62.94
37170;BME280;23062;13.952;100.608;2023-10-13T08:06:05;1008.86;;;32.44;62.69
37170;BME280;23062;13.952;100.608;2023-10-13T08:10:53;1008.77;;;32.43;62.05
37170;BME280;23062;13.952;100.608;2023-10-13T08:15:46;1008.82;;;32.40;62.24
37170;BME280;23062;13.952;100.608;2023-10-13T08:20:33;1008.85;;;32.37;61.71
37170;BME280;23062;13.952;100.608;2023-10-13T08:25:13;1008.88;;;32.45;61.95
37170;BME280;23062;13.952;100.608;2023-10-13T08:30:14;1008.78;;;32.42;61.68
37170;BME280;23062;13.952;100.608;2023-10-13T08:35:04;1008.73;;;32.45;62.27
37170;BME280;23062;13.952;100.608;2023-10-13T08:39:57;1008.70;;;32.45;62.53
37170;BME280;23062;13.952;100.608;2023-10-13T08:44:49;1008.70;;;32.41;62.55
37170;BME280;23062;13.952;100.608;2023-10-13T08:49:35;1008.67;;;32.43;61.98
37170;BME280;23062;13.952;100.608;2023-10-13T08:54:20;1008.77;;;32.49;61.27
37170;BME280;23062;13.952;100.608;2023-10-13T08:59:14;1008.80;;;32.49;61.33
37170;BME280;23062;13.952;100.608;2023-10-13T09:04:01;1008.82;;;32.46;61.68
37170;BME280;23062;13.952;100.608;2023-10-13T09:09:10;1008.76;;;32.44;62.02
37170;BME280;23062;13.952;100.608;2023-10-13T09:13:56;1008.82;;;32.52;61.67
37170;BME280;23062;13.952;100.608;2023-10-13T09:18:42;1008.85;;;32.49;61.26
37170;BME280;23062;13.952;100.608;2023-10-13T09:23:28;1008.93;;;32.47;61.45
37170;BME280;23062;13.952;100.608;2023-10-13T09:28:17;1008.90;;;32.48;61.70
37170;BME280;23062;13.952;100.608;2023-10-13T09:33:05;1008.99;;;32.49;61.00
37170;BME280;23062;13.952;100.608;2023-10-13T09:37:49;1009.09;;;32.52;60.98
37170;BME280;23062;13.952;100.608;2023-10-13T09:42:31;1009.20;;;32.52;61.58
37170;BME280;23062;13.952;100.608;2023-10-13T09:47:16;1009.22;;;32.50;62.08
37170;BME280;23062;13.952;100.608;2023-10-13T09:52:01;1009.22;;;32.50;61.09
37170;BME280;23062;13.952;100.608;2023-10-13T09:56:48;1009.30;;;32.50;60.96
37170;BME280;23062;13.952;100.608;2023-10-13T10:01:41;1009.37;;;32.51;60.46
37170;BME280;23062;13.952;100.608;2023-10-13T10:06:25;1009.19;;;32.49;60.33
37170;BME280;23062;13.952;100.608;2023-10-13T10:16:35;1009.27;;;32.53;60.41
37170;BME280;23062;13.952;100.608;2023-10-13T10:21:07;1009.29;;;32.55;60.27
37170;BME280;23062;13.952;100.608;2023-10-13T10:25:45;1009.27;;;32.53;60.37
37170;BME280;23062;13.952;100.608;2023-10-13T10:30:31;1009.41;;;32.53;60.61
37170;BME280;23062;13.952;100.608;2023-10-13T10:35:12;1009.54;;;32.50;60.84
37170;BME280;23062;13.952;100.608;2023-10-13T10:39:59;1009.76;;;32.53;61.33
37170;BME280;23062;13.952;100.608;2023-10-13T10:44:45;1009.82;;;32.53;60.84
37170;BME280;23062;13.952;100.608;2023-10-13T10:49:29;1009.88;;;32.53;61.07
37170;BME280;23062;13.952;100.608;2023-10-13T10:54:22;1009.93;;;32.59;60.79
37170;BME280;23062;13.952;100.608;2023-10-13T10:59:02;1009.91;;;32.53;61.12
37170;BME280;23062;13.952;100.608;2023-10-13T11:03:57;1009.87;;;32.50;61.11
37170;BME280;23062;13.952;100.608;2023-10-13T11:08:42;1009.86;;;32.51;61.81
37170;BME280;23062;13.952;100.608;2023-10-13T11:13:27;1009.93;;;32.49;62.05
37170;BME280;23062;13.952;100.608;2023-10-13T11:18:16;1009.93;;;32.50;62.89
37170;BME280;23062;13.952;100.608;2023-10-13T11:22:55;1009.96;;;32.47;63.28
37170;BME280;23062;13.952;100.608;2023-10-13T11:27:41;1010.02;;;32.48;63.43
37170;BME280;23062;13.952;100.608;2023-10-13T11:32:37;1010.06;;;32.47;63.98
37170;BME280;23062;13.952;100.608;2023-10-13T11:37:22;1010.10;;;32.46;64.10
37170;BME280;23062;13.952;100.608;2023-10-13T11:42:09;1010.13;;;32.48;64.03
37170;BME280;23062;13.952;100.608;2023-10-13T11:46:55;1010.18;;;32.49;64.52
37170;BME280;23062;13.952;100.608;2023-10-13T11:51:35;1010.25;;;32.49;64.63
37170;BME280;23062;13.952;100.608;2023-10-13T11:56:21;1010.35;;;32.49;63.91
37170;BME280;23062;13.952;100.608;2023-10-13T12:01:08;1010.35;;;32.47;63.41
37170;BME280;23062;13.952;100.608;2023-10-13T12:06:00;1010.41;;;32.47;63.18
37170;BME280;23062;13.952;100.608;2023-10-13T12:11:03;1010.52;;;32.44;63.44
37170;BME280;23062;13.952;100.608;2023-10-13T12:15:50;1010.56;;;32.43;63.38
37170;BME280;23062;13.952;100.608;2023-10-13T12:20:37;1010.72;;;32.42;63.90
37170;BME280;23062;13.952;100.608;2023-10-13T12:25:22;1010.82;;;32.43;64.60
37170;BME280;23062;13.952;100.608;2023-10-13T12:30:20;1010.89;;;32.44;65.26
37170;BME280;23062;13.952;100.608;2023-10-13T12:35:24;1010.91;;;32.41;65.51
37170;BME280;23062;13.952;100.608;2023-10-13T12:40:19;1010.98;;;32.42;65.75
37170;BME280;23062;13.952;100.608;2023-10-13T12:45:23;1010.98;;;32.39;66.01
37170;BME280;23062;13.952;100.608;2023-10-13T12:50:26;1011.08;;;32.39;66.06
37170;BME280;23062;13.952;100.608;2023-10-13T12:55:16;1011.11;;;32.36;66.12
37170;BME280;23062;13.952;100.608;2023-10-13T13:00:05;1011.21;;;32.37;66.23
37170;BME280;23062;13.952;100.608;2023-10-13T13:04:56;1011.28;;;32.33;66.59
37170;BME280;23062;13.952;100.608;2023-10-13T13:09:45;1011.36;;;32.33;66.72
37170;BME280;23062;13.952;100.608;2023-10-13T13:14:33;1011.38;;;32.32;66.96
37170;BME280;23062;13.952;100.608;2023-10-13T13:19:21;1011.47;;;32.33;67.05
37170;BME280;23062;13.952;100.608;2023-10-13T13:24:09;1011.58;;;32.31;67.28
37170;BME280;23062;13.952;100.608;2023-10-13T13:28:55;1011.60;;;32.33;67.28
37170;BME280;23062;13.952;100.608;2023-10-13T13:33:41;1011.59;;;32.35;67.45
37170;BME280;23062;13.952;100.608;2023-10-13T13:38:30;1011.69;;;32.33;67.61
37170;BME280;23062;13.952;100.608;2023-10-13T13:43:11;1011.77;;;32.37;67.64
37170;BME280;23062;13.952;100.608;2023-10-13T13:47:57;1011.77;;;32.31;67.93
37170;BME280;23062;13.952;100.608;2023-10-13T13:52:41;1011.82;;;32.33;68.06
37170;BME280;23062;13.952;100.608;2023-10-13T13:57:28;1011.82;;;32.33;68.28
37170;BME280;23062;13.952;100.608;2023-10-13T14:02:13;1011.96;;;32.31;68.37
37170;BME280;23062;13.952;100.608;2023-10-13T14:07:07;1012.01;;;32.32;68.50
37170;BME280;23062;13.952;100.608;2023-10-13T14:11:47;1012.02;;;32.44;68.19
37170;BME280;23062;13.952;100.608;2023-10-13T14:16:50;1011.98;;;32.45;68.07
37170;BME280;23062;13.952;100.608;2023-10-13T14:21:39;1012.05;;;32.46;68.14
37170;BME280;23062;13.952;100.608;2023-10-13T14:26:26;1012.08;;;32.45;68.19
37170;BME280;23062;13.952;100.608;2023-10-13T14:31:14;1012.19;;;32.46;68.27
37170;BME280;23062;13.952;100.608;2023-10-13T14:35:56;1012.25;;;32.46;68.32
37170;BME280;23062;13.952;100.608;2023-10-13T14:40:43;1012.26;;;32.44;68.41
37170;BME280;23062;13.952;100.608;2023-10-13T14:45:31;1012.27;;;32.44;68.48
37170;BME280;23062;13.952;100.608;2023-10-13T14:50:16;1012.26;;;32.45;68.49
37170;BME280;23062;13.952;100.608;2023-10-13T14:55:02;1012.29;;;32.43;68.54
37170;BME280;23062;13.952;100.608;2023-10-13T14:59:42;1012.32;;;32.44;68.55
37170;BME280;23062;13.952;100.608;2023-10-13T15:04:23;1012.35;;;32.44;68.60
37170;BME280;23062;13.952;100.608;2023-10-13T15:09:13;1012.38;;;32.42;68.70
37170;BME280;23062;13.952;100.608;2023-10-13T15:13:59;1012.31;;;32.39;68.75
37170;BME280;23062;13.952;100.608;2023-10-13T15:18:43;1012.38;;;32.41;68.81
37170;BME280;23062;13.952;100.608;2023-10-13T15:23:28;1012.42;;;32.41;68.94
37170;BME280;23062;13.952;100.608;2023-10-13T15:28:10;1012.45;;;32.41;69.01
37170;BME280;23062;13.952;100.608;2023-10-13T15:32:49;1012.46;;;32.41;69.05
37170;BME280;23062;13.952;100.608;2023-10-13T15:37:28;1012.47;;;32.41;69.13
37170;BME280;23062;13.952;100.608;2023-10-13T15:42:12;1012.44;;;32.39;69.32
37170;BME280;23062;13.952;100.608;2023-10-13T15:46:56;1012.42;;;32.38;69.53
37170;BME280;23062;13.952;100.608;2023-10-13T15:51:35;1012.42;;;32.38;69.54
37170;BME280;23062;13.952;100.608;2023-10-13T15:56:20;1012.47;;;32.38;69.67
37170;BME280;23062;13.952;100.608;2023-10-13T16:01:05;1012.40;;;32.37;69.74
37170;BME280;23062;13.952;100.608;2023-10-13T16:05:52;1012.40;;;32.36;69.84
37170;BME280;23062;13.952;100.608;2023-10-13T16:10:35;1012.36;;;32.36;69.89
37170;BME280;23062;13.952;100.608;2023-10-13T16:15:18;1012.34;;;32.34;69.92
37170;BME280;23062;13.952;100.608;2023-10-13T16:20:04;1012.37;;;32.34;70.00
37170;BME280;23062;13.952;100.608;2023-10-13T16:24:50;1012.47;;;32.34;70.06
37170;BME280;23062;13.952;100.608;2023-10-13T16:29:37;1012.51;;;32.33;70.11
37170;BME280;23062;13.952;100.608;2023-10-13T16:34:24;1012.44;;;32.33;70.15
37170;BME280;23062;13.952;100.608;2023-10-13T16:39:09;1012.44;;;32.32;70.20
37170;BME280;23062;13.952;100.608;2023-10-13T16:43:54;1012.44;;;32.31;70.29
37170;BME280;23062;13.952;100.608;2023-10-13T16:48:39;1012.41;;;32.32;69.43
37170;BME280;23062;13.952;100.608;2023-10-13T16:53:25;1012.36;;;32.29;68.86
37170;BME280;23062;13.952;100.608;2023-10-13T16:58:06;1012.36;;;32.30;69.73
37170;BME280;23062;13.952;100.608;2023-10-13T17:02:46;1012.27;;;32.28;70.38
37170;BME280;23062;13.952;100.608;2023-10-13T17:07:31;1012.14;;;32.28;70.31
37170;BME280;23062;13.952;100.608;2023-10-13T17:12:15;1012.05;;;32.28;70.31
37170;BME280;23062;13.952;100.608;2023-10-13T17:16:59;1012.01;;;32.27;70.57
37170;BME280;23062;13.952;100.608;2023-10-13T17:21:40;1011.99;;;32.28;70.67
37170;BME280;23062;13.952;100.608;2023-10-13T17:26:27;1011.94;;;32.28;70.80
37170;BME280;23062;13.952;100.608;2023-10-13T17:31:13;1011.92;;;32.27;70.96
37170;BME280;23062;13.952;100.608;2023-10-13T17:35:57;1011.85;;;32.26;71.12
37170;BME280;23062;13.952;100.608;2023-10-13T17:40:38;1011.75;;;32.26;71.20
37170;BME280;23062;13.952;100.608;2023-10-13T17:45:22;1011.71;;;32.25;71.51
37170;BME280;23062;13.952;100.608;2023-10-13T17:50:07;1011.68;;;32.23;71.57
37170;BME280;23062;13.952;100.608;2023-10-13T17:54:52;1011.65;;;32.23;71.41
37170;BME280;23062;13.952;100.608;2023-10-13T17:59:35;1011.53;;;32.23;71.61
37170;BME280;23062;13.952;100.608;2023-10-13T18:04:18;1011.48;;;32.22;71.54
37170;BME280;23062;13.952;100.608;2023-10-13T18:09:02;1011.41;;;32.22;71.45
37170;BME280;23062;13.952;100.608;2023-10-13T18:13:46;1011.37;;;32.21;71.54
37170;BME280;23062;13.952;100.608;2023-10-13T18:18:33;1011.27;;;32.20;71.48
37170;BME280;23062;13.952;100.608;2023-10-13T18:23:23;1011.20;;;32.15;71.97
37170;BME280;23062;13.952;100.608;2023-10-13T18:28:08;1011.17;;;32.10;71.98
37170;BME280;23062;13.952;100.608;2023-10-13T18:32:54;1011.11;;;32.04;70.38
37170;BME280;23062;13.952;100.608;2023-10-13T18:37:38;1011.04;;;32.04;70.30
37170;BME280;23062;13.952;100.608;2023-10-13T18:42:16;1010.92;;;32.05;70.31
37170;BME280;23062;13.952;100.608;2023-10-13T18:46:59;1010.85;;;32.02;70.03
37170;BME280;23062;13.952;100.608;2023-10-13T18:51:47;1010.78;;;32.00;69.86
37170;BME280;23062;13.952;100.608;2023-10-13T18:56:32;1010.80;;;32.06;70.19
37170;BME280;23062;13.952;100.608;2023-10-13T19:01:16;1010.69;;;32.06;69.99
37170;BME280;23062;13.952;100.608;2023-10-13T19:06:03;1010.59;;;32.05;70.12
37170;BME280;23062;13.952;100.608;2023-10-13T19:10:47;1010.60;;;32.06;69.98
37170;BME280;23062;13.952;100.608;2023-10-13T19:15:34;1010.54;;;32.07;69.88
37170;BME280;23062;13.952;100.608;2023-10-13T19:20:16;1010.43;;;32.06;69.86
37170;BME280;23062;13.952;100.608;2023-10-13T19:24:55;1010.42;;;32.06;69.68
37170;BME280;23062;13.952;100.608;2023-10-13T19:29:39;1010.36;;;32.04;69.61
37170;BME280;23062;13.952;100.608;2023-10-13T19:34:23;1010.37;;;32.04;69.52
37170;BME280;23062;13.952;100.608;2023-10-13T19:39:06;1010.41;;;32.04;69.37
37170;BME280;23062;13.952;100.608;2023-10-13T19:43:50;1010.45;;;32.02;69.18
37170;BME280;23062;13.952;100.608;2023-10-13T19:48:28;1010.43;;;32.02;69.03
37170;BME280;23062;13.952;100.608;2023-10-13T19:53:15;1010.49;;;32.01;68.99
37170;BME280;23062;13.952;100.608;2023-10-13T19:57:59;1010.43;;;32.00;68.91
37170;BME280;23062;13.952;100.608;2023-10-13T20:02:43;1010.43;;;32.01;68.96
37170;BME280;23062;13.952;100.608;2023-10-13T20:07:29;1010.38;;;31.99;69.01
37170;BME280;23062;13.952;100.608;2023-10-13T20:12:15;1010.30;;;31.99;68.98
37170;BME280;23062;13.952;100.608;2023-10-13T20:17:00;1010.39;;;31.99;69.05
37170;BME280;23062;13.952;100.608;2023-10-13T20:21:46;1010.47;;;31.98;69.07
37170;BME280;23062;13.952;100.608;2023-10-13T20:26:31;1010.49;;;31.98;69.07
37170;BME280;23062;13.952;100.608;2023-10-13T20:31:20;1010.43;;;31.97;69.00
37170;BME280;23062;13.952;100.608;2023-10-13T20:36:05;1010.36;;;31.97;68.99
37170;BME280;23062;13.952;100.608;2023-10-13T20:40:45;1010.39;;;31.97;68.99
37170;BME280;23062;13.952;100.608;2023-10-13T20:45:34;1010.37;;;31.96;69.06
37170;BME280;23062;13.952;100.608;2023-10-13T20:50:21;1010.33;;;31.96;69.06
37170;BME280;23062;13.952;100.608;2023-10-13T20:54:56;1010.41;;;31.96;69.03
37170;BME280;23062;13.952;100.608;2023-10-13T20:59:41;1010.41;;;31.94;69.12
37170;BME280;23062;13.952;100.608;2023-10-13T21:04:27;1010.37;;;31.94;69.21
37170;BME280;23062;13.952;100.608;2023-10-13T21:09:12;1010.41;;;31.93;69.30
37170;BME280;23062;13.952;100.608;2023-10-13T21:13:57;1010.41;;;31.81;69.47
37170;BME280;23062;13.952;100.608;2023-10-13T21:18:43;1010.36;;;31.71;69.57
37170;BME280;23062;13.952;100.608;2023-10-13T21:23:30;1010.33;;;31.70;69.53
37170;BME280;23062;13.952;100.608;2023-10-13T21:28:14;1010.32;;;31.67;69.60
37170;BME280;23062;13.952;100.608;2023-10-13T21:32:58;1010.32;;;31.68;69.81
37170;BME280;23062;13.952;100.608;2023-10-13T21:37:36;1010.35;;;31.61;69.92
37170;BME280;23062;13.952;100.608;2023-10-13T21:42:22;1010.32;;;31.61;71.77
37170;BME280;23062;13.952;100.608;2023-10-13T21:47:08;1010.30;;;31.58;73.91
37170;BME280;23062;13.952;100.608;2023-10-13T21:51:47;1010.27;;;31.56;74.26
37170;BME280;23062;13.952;100.608;2023-10-13T21:56:33;1010.33;;;31.47;75.12
37170;BME280;23062;13.952;100.608;2023-10-13T22:01:17;1010.40;;;31.47;75.38
37170;BME280;23062;13.952;100.608;2023-10-13T22:06:07;1010.43;;;31.48;74.92
37170;BME280;23062;13.952;100.608;2023-10-13T22:10:51;1010.38;;;31.63;74.25
37170;BME280;23062;13.952;100.608;2023-10-13T22:15:36;1010.39;;;31.67;73.85
37170;BME280;23062;13.952;100.608;2023-10-13T22:20:13;1010.40;;;31.67;73.57
37170;BME280;23062;13.952;100.608;2023-10-13T22:24:56;1010.55;;;31.67;74.74
37170;BME280;23062;13.952;100.608;2023-10-13T22:29:39;1010.62;;;31.60;74.55
37170;BME280;23062;13.952;100.608;2023-10-13T22:34:24;1010.66;;;31.57;74.54
37170;BME280;23062;13.952;100.608;2023-10-13T22:39:05;1010.63;;;31.53;74.58
37170;BME280;23062;13.952;100.608;2023-10-13T22:43:51;1010.65;;;31.55;74.47
37170;BME280;23062;13.952;100.608;2023-10-13T22:48:35;1010.70;;;31.59;74.47
37170;BME280;23062;13.952;100.608;2023-10-13T22:53:19;1010.76;;;31.60;74.46
37170;BME280;23062;13.952;100.608;2023-10-13T22:58:05;1010.80;;;31.63;74.23
37170;BME280;23062;13.952;100.608;2023-10-13T23:02:48;1010.77;;;31.60;74.25
37170;BME280;23062;13.952;100.608;2023-10-13T23:07:32;1010.85;;;31.57;74.39
37170;BME280;23062;13.952;100.608;2023-10-13T23:12:09;1010.90;;;31.54;74.65
37170;BME280;23062;13.952;100.608;2023-10-13T23:16:54;1010.94;;;31.54;74.77
37170;BME280;23062;13.952;100.608;2023-10-13T23:21:31;1010.99;;;31.54;74.88
37170;BME280;23062;13.952;100.608;2023-10-13T23:26:10;1010.94;;;31.51;74.98
37170;BME280;23062;13.952;100.608;2023-10-13T23:30:47;1010.93;;;31.53;74.84
37170;BME280;23062;13.952;100.608;2023-10-13T23:35:30;1011.00;;;31.60;74.34
37170;BME280;23062;13.952;100.608;2023-10-13T23:40:13;1011.06;;;31.64;74.07
37170;BME280;23062;13.952;100.608;2023-10-13T23:44:53;1011.04;;;31.66;73.76
37170;BME280;23062;13.952;100.608;2023-10-13T23:49:38;1011.09;;;31.68;73.67
37170;BME280;23062;13.952;100.608;2023-10-13T23:54:22;1011.15;;;31.70;73.49
37170;BME280;23062;13.952;100.608;2023-10-13T23:59:08;1011.21;;;31.72;73.46
